Terminal Aerodrome Forecast
Issued by NWS Omaha/Valley, NE

Home | Current Version | Previous Version | Text Only | Print | Product List | Glossary On
Versions: 1 2 3 4 5 6 7 8 9 10 11 12 13 14 15 16 17 18 19 20 21 22 23 24 25 26 27 28 29 30
000
FTUS43 KOAX 292320
TAFOMA
TAF
KOMA 292320Z 3000/3024 36005KT P6SM SCT050 BKN250
     FM300100 02004KT P6SM SCT250
     FM301000 VRB03KT 6SM BR SCT250
      TEMPO 3011/3014 2SM BR
     FM301500 36005KT P6SM SCT050 BKN250=

USA.gov is the U.S. government's official web portal to all federal, state and local government web resources and services.